createdAt,value
2018-08-11T00:00:25.163Z,17.10
2018-08-11T00:02:52.769Z,17.10
2018-08-11T00:05:20.280Z,17.00
2018-08-11T00:07:48.349Z,16.90
2018-08-11T00:10:15.984Z,17.20
2018-08-11T00:12:43.479Z,17.10
2018-08-11T00:15:13.012Z,17.10
2018-08-11T00:17:40.710Z,17.10
2018-08-11T00:20:10.643Z,17.10
2018-08-11T00:22:38.696Z,16.80
2018-08-11T00:25:06.551Z,16.90
2018-08-11T00:27:34.018Z,17.10
2018-08-11T00:30:02.180Z,17.00
2018-08-11T00:32:29.880Z,16.90
2018-08-11T00:34:58.228Z,16.90
2018-08-11T00:37:25.701Z,16.80
2018-08-11T00:39:53.171Z,16.80
2018-08-11T00:42:20.631Z,16.70
2018-08-11T00:44:48.066Z,16.80
2018-08-11T00:47:15.528Z,16.70
2018-08-11T00:49:43.328Z,16.60
2018-08-11T00:52:10.805Z,16.80
2018-08-11T00:54:38.464Z,16.70
2018-08-11T00:57:05.922Z,16.80
2018-08-11T00:59:33.436Z,16.70
2018-08-11T01:02:00.838Z,16.60
2018-08-11T01:04:28.267Z,16.70
2018-08-11T01:06:55.769Z,16.60
2018-08-11T01:09:23.247Z,16.40
2018-08-11T01:11:50.675Z,16.60
2018-08-11T01:14:18.236Z,16.50
2018-08-11T01:16:45.642Z,16.60
2018-08-11T01:19:13.134Z,16.60
2018-08-11T01:21:40.559Z,16.40
2018-08-11T01:24:08.061Z,16.40
2018-08-11T01:26:35.475Z,16.50
2018-08-11T01:29:02.971Z,16.40
2018-08-11T01:31:30.431Z,16.40
2018-08-11T01:33:57.884Z,16.30
2018-08-11T01:36:25.318Z,16.30
2018-08-11T01:38:52.818Z,16.20
2018-08-11T01:41:20.369Z,16.10
2018-08-11T01:43:47.761Z,16.00
2018-08-11T01:46:15.226Z,16.00
2018-08-11T01:48:42.628Z,16.10
2018-08-11T01:51:10.076Z,16.00
2018-08-11T01:53:37.502Z,16.00
2018-08-11T01:56:04.951Z,16.00
2018-08-11T01:58:32.428Z,16.00
2018-08-11T02:00:59.918Z,16.00
2018-08-11T02:03:27.351Z,16.00
2018-08-11T02:05:54.832Z,15.90
2018-08-11T02:08:22.269Z,16.00
2018-08-11T02:10:49.672Z,15.80
2018-08-11T02:13:17.151Z,15.80
2018-08-11T02:15:45.147Z,15.90
2018-08-11T02:18:12.553Z,15.80
2018-08-11T02:20:40.082Z,15.70
2018-08-11T02:23:07.527Z,15.70
2018-08-11T02:25:34.943Z,15.90
2018-08-11T02:28:02.427Z,15.80
2018-08-11T02:30:29.855Z,15.60
2018-08-11T02:32:57.336Z,15.80
2018-08-11T02:35:24.758Z,15.70
2018-08-11T02:37:52.176Z,15.90
2018-08-11T02:40:19.638Z,15.90
2018-08-11T02:42:47.111Z,16.00
2018-08-11T02:45:15.820Z,16.10
2018-08-11T02:47:43.522Z,16.00
2018-08-11T02:50:12.006Z,15.80
2018-08-11T02:52:40.293Z,15.90
2018-08-11T02:55:07.827Z,15.90
2018-08-11T02:57:35.440Z,16.00
2018-08-11T03:00:03.551Z,15.90
2018-08-11T03:02:31.143Z,16.00
2018-08-11T03:04:58.448Z,16.10
2018-08-11T03:07:25.896Z,15.90
2018-08-11T03:09:53.950Z,15.80
2018-08-11T03:12:21.451Z,16.00
2018-08-11T03:14:48.851Z,16.00
2018-08-11T03:17:16.316Z,15.90
2018-08-11T03:19:43.750Z,16.00
2018-08-11T03:22:11.232Z,15.90
2018-08-11T03:24:38.728Z,16.10
2018-08-11T03:27:06.158Z,16.10
2018-08-11T03:29:33.595Z,16.10
2018-08-11T03:32:00.975Z,16.10
2018-08-11T03:34:28.422Z,16.00
2018-08-11T03:36:55.816Z,16.30
2018-08-11T03:39:23.269Z,16.30
2018-08-11T03:41:50.662Z,16.20
2018-08-11T03:44:18.211Z,16.30
2018-08-11T03:46:45.679Z,16.30
2018-08-11T03:49:13.131Z,16.30
2018-08-11T03:51:40.520Z,16.20
2018-08-11T03:54:07.912Z,16.20
2018-08-11T03:56:35.350Z,16.20
2018-08-11T03:59:02.953Z,16.20
2018-08-11T04:01:30.439Z,16.30
2018-08-11T04:03:57.965Z,16.20
2018-08-11T04:06:25.528Z,16.20
2018-08-11T04:08:52.943Z,16.20
2018-08-11T04:11:20.393Z,16.20
2018-08-11T04:13:47.790Z,16.10
2018-08-11T04:16:15.285Z,16.10
2018-08-11T04:18:42.680Z,16.30
2018-08-11T04:21:10.125Z,16.30
2018-08-11T04:23:37.618Z,16.30
2018-08-11T04:26:05.021Z,16.30
2018-08-11T04:28:32.479Z,16.30
2018-08-11T04:30:59.886Z,16.40
2018-08-11T04:33:27.315Z,16.40
2018-08-11T04:35:54.728Z,16.20
2018-08-11T04:38:22.282Z,16.20
2018-08-11T04:40:49.660Z,16.00
2018-08-11T04:43:17.111Z,16.00
2018-08-11T04:45:44.517Z,15.90
2018-08-11T04:48:11.968Z,15.80
2018-08-11T04:50:39.352Z,15.90
2018-08-11T04:53:06.749Z,15.90
2018-08-11T04:55:34.171Z,15.90
2018-08-11T04:58:01.596Z,16.00
2018-08-11T05:00:29.138Z,16.00
2018-08-11T05:02:56.563Z,16.20
2018-08-11T05:05:23.991Z,16.30
2018-08-11T05:07:51.402Z,16.40
2018-08-11T05:10:18.861Z,16.40
2018-08-11T05:12:46.279Z,16.40
2018-08-11T05:15:13.722Z,16.60
2018-08-11T05:17:41.149Z,16.70
2018-08-11T05:20:08.608Z,16.70
2018-08-11T05:22:35.998Z,16.60
2018-08-11T05:25:03.504Z,16.60
2018-08-11T05:27:30.931Z,16.70
2018-08-11T05:29:58.420Z,16.60
2018-08-11T05:32:25.863Z,16.60
2018-08-11T05:34:54.061Z,16.30
2018-08-11T05:37:21.550Z,16.30
2018-08-11T05:39:48.958Z,16.20
2018-08-11T05:42:16.387Z,16.30
2018-08-11T05:44:43.796Z,16.40
2018-08-11T05:47:11.267Z,16.50
2018-08-11T05:49:38.670Z,16.50
2018-08-11T05:52:06.148Z,16.40
2018-08-11T05:54:33.626Z,16.30
2018-08-11T05:57:01.050Z,16.40
2018-08-11T05:59:28.518Z,16.50
2018-08-11T06:01:55.971Z,16.40
2018-08-11T06:04:23.419Z,16.30
2018-08-11T06:06:50.818Z,16.30
2018-08-11T06:09:18.263Z,16.20
2018-08-11T06:11:45.704Z,16.30
2018-08-11T06:14:13.192Z,16.50
2018-08-11T06:16:40.637Z,16.50
2018-08-11T06:19:08.122Z,16.30
2018-08-11T06:21:35.587Z,16.40
2018-08-11T06:24:03.984Z,15.90
2018-08-11T06:26:31.591Z,16.00
2018-08-11T06:28:59.074Z,16.20
2018-08-11T06:31:26.588Z,16.20
2018-08-11T06:33:54.107Z,16.20
2018-08-11T06:36:21.555Z,16.10
2018-08-11T06:38:49.260Z,16.10
2018-08-11T06:41:16.692Z,15.90
2018-08-11T06:43:44.176Z,16.00
2018-08-11T06:46:11.629Z,16.10
2018-08-11T06:48:39.035Z,16.20
2018-08-11T06:51:06.575Z,16.30
2018-08-11T06:53:34.041Z,16.10
2018-08-11T06:56:01.495Z,15.90
2018-08-11T06:58:29.118Z,15.90
2018-08-11T07:00:56.728Z,15.90
2018-08-11T07:03:24.112Z,15.80
2018-08-11T07:05:51.573Z,16.00
2018-08-11T07:08:19.046Z,15.90
2018-08-11T07:10:46.465Z,16.10
2018-08-11T07:13:13.868Z,16.00
2018-08-11T07:15:41.320Z,15.80
2018-08-11T07:18:08.760Z,16.10
2018-08-11T07:20:36.235Z,16.10
2018-08-11T07:23:03.656Z,16.10
2018-08-11T07:25:31.088Z,16.20
2018-08-11T07:27:58.581Z,16.00
2018-08-11T07:30:25.970Z,15.90
2018-08-11T07:32:53.471Z,16.00
2018-08-11T07:35:21.124Z,16.30
2018-08-11T07:37:48.647Z,16.30
2018-08-11T07:40:16.382Z,16.30
2018-08-11T07:42:43.891Z,16.20
2018-08-11T07:45:13.650Z,16.30
2018-08-11T07:47:41.242Z,16.40
2018-08-11T07:50:08.823Z,16.40
2018-08-11T07:52:36.391Z,16.60
2018-08-11T07:55:03.871Z,17.00
2018-08-11T07:57:31.451Z,17.00
2018-08-11T07:59:59.140Z,17.10
2018-08-11T08:02:26.625Z,17.00
2018-08-11T08:04:54.093Z,16.80
2018-08-11T08:07:21.575Z,16.90
2018-08-11T08:09:48.987Z,16.90
2018-08-11T08:12:16.396Z,17.00
2018-08-11T08:14:43.851Z,17.10
2018-08-11T08:17:11.411Z,16.80
2018-08-11T08:19:38.862Z,17.00
2018-08-11T08:22:06.404Z,17.00
2018-08-11T08:24:33.858Z,17.20
2018-08-11T08:27:01.268Z,17.40
2018-08-11T08:29:28.729Z,17.20
2018-08-11T08:31:56.152Z,17.10
2018-08-11T08:34:23.612Z,17.00
2018-08-11T08:36:51.015Z,17.00
2018-08-11T08:39:18.416Z,16.80
2018-08-11T08:41:45.955Z,16.70
2018-08-11T08:44:13.330Z,16.60
2018-08-11T08:46:40.991Z,16.80
2018-08-11T08:49:08.464Z,17.20
2018-08-11T08:51:36.112Z,17.30
2018-08-11T08:54:03.522Z,17.50
2018-08-11T08:56:30.975Z,17.40
2018-08-11T08:58:58.530Z,17.70
2018-08-11T09:01:25.952Z,17.90
2018-08-11T09:03:53.493Z,17.70
2018-08-11T09:06:21.075Z,17.50
2018-08-11T09:08:48.543Z,17.60
2018-08-11T09:11:15.979Z,17.40
2018-08-11T09:13:43.360Z,17.20
2018-08-11T09:16:10.822Z,17.40
2018-08-11T09:18:38.217Z,17.70
2018-08-11T09:21:05.715Z,17.90
2018-08-11T09:23:33.138Z,17.90
2018-08-11T09:26:00.562Z,18.00
2018-08-11T09:28:28.048Z,18.00
2018-08-11T09:30:55.472Z,17.90
2018-08-11T09:33:22.971Z,17.70
2018-08-11T09:35:50.367Z,17.60
2018-08-11T09:38:17.847Z,17.60
2018-08-11T09:40:45.299Z,17.60
2018-08-11T09:43:12.717Z,17.50
2018-08-11T09:45:40.186Z,17.50
2018-08-11T09:48:07.627Z,17.60
2018-08-11T09:50:35.046Z,17.50
2018-08-11T09:53:02.489Z,17.30
2018-08-11T09:55:29.903Z,17.60
2018-08-11T09:57:57.459Z,17.50
2018-08-11T10:00:31.649Z,17.50
2018-08-11T10:02:59.051Z,17.70
2018-08-11T10:05:26.480Z,17.40
2018-08-11T10:07:53.948Z,17.40
2018-08-11T10:10:21.368Z,17.70
2018-08-11T10:12:49.005Z,17.90
2018-08-11T10:15:16.485Z,18.00
2018-08-11T10:17:43.948Z,18.00
2018-08-11T10:20:11.408Z,18.10
2018-08-11T10:22:38.970Z,18.30
2018-08-11T10:25:06.427Z,18.50
2018-08-11T10:27:33.867Z,18.80
2018-08-11T10:30:01.358Z,18.80
2018-08-11T10:32:29.678Z,19.00
2018-08-11T10:34:57.139Z,19.00
2018-08-11T10:37:24.573Z,19.30
2018-08-11T10:39:52.023Z,19.60
2018-08-11T10:42:19.502Z,19.70
2018-08-11T10:44:46.920Z,19.50
2018-08-11T10:47:14.383Z,19.50
2018-08-11T10:49:41.951Z,19.30
2018-08-11T10:52:09.339Z,19.20
2018-08-11T10:54:36.763Z,19.10
2018-08-11T10:57:04.171Z,19.00
2018-08-11T10:59:31.611Z,18.80
2018-08-11T11:01:59.059Z,18.80
2018-08-11T11:04:26.545Z,18.80
2018-08-11T11:06:53.999Z,18.60
2018-08-11T11:09:21.583Z,18.50
2018-08-11T11:11:49.027Z,18.50
2018-08-11T11:14:16.472Z,18.40
2018-08-11T11:16:43.863Z,18.80
2018-08-11T11:19:11.300Z,18.90
2018-08-11T11:21:38.720Z,19.20
2018-08-11T11:24:06.151Z,19.10
2018-08-11T11:26:33.571Z,19.00
2018-08-11T11:29:01.076Z,18.70
2018-08-11T11:31:28.526Z,18.80
2018-08-11T11:33:55.903Z,18.90
2018-08-11T11:36:23.588Z,19.00
2018-08-11T11:38:51.000Z,19.10
2018-08-11T11:41:18.426Z,18.80
2018-08-11T11:43:45.829Z,18.50
2018-08-11T11:46:13.269Z,18.50
2018-08-11T11:48:40.698Z,18.30
2018-08-11T11:51:08.140Z,18.30
2018-08-11T11:53:35.566Z,18.30
2018-08-11T11:56:05.812Z,18.20
2018-08-11T11:58:33.210Z,17.80
2018-08-11T12:01:00.680Z,17.30
2018-08-11T12:03:28.074Z,17.20
2018-08-11T12:05:55.549Z,17.30
2018-08-11T12:08:22.932Z,17.50
2018-08-11T12:10:50.347Z,17.40
2018-08-11T12:13:17.893Z,17.60
2018-08-11T12:15:45.378Z,17.90
2018-08-11T12:18:12.795Z,18.10
2018-08-11T12:20:40.250Z,18.50
2018-08-11T12:23:07.649Z,18.80
2018-08-11T12:25:35.088Z,19.00
2018-08-11T12:28:02.546Z,18.80
2018-08-11T12:30:29.979Z,19.00
2018-08-11T12:32:57.380Z,19.00
2018-08-11T12:35:24.836Z,19.40
2018-08-11T12:37:52.366Z,19.20
2018-08-11T12:40:19.782Z,19.30
2018-08-11T12:42:47.178Z,19.20
2018-08-11T12:45:14.634Z,19.00
2018-08-11T12:47:42.032Z,19.00
2018-08-11T12:50:09.469Z,19.10
2018-08-11T12:52:36.876Z,19.20
2018-08-11T12:55:04.600Z,19.30
2018-08-11T12:57:32.012Z,19.40
2018-08-11T12:59:59.467Z,19.60
2018-08-11T13:02:26.866Z,19.70
2018-08-11T13:04:54.377Z,19.30
2018-08-11T13:07:21.788Z,19.10
2018-08-11T13:09:49.228Z,18.90
2018-08-11T13:12:16.658Z,18.90
2018-08-11T13:14:44.083Z,18.90
2018-08-11T13:17:11.485Z,18.90
2018-08-11T13:19:38.899Z,18.70
2018-08-11T13:22:08.314Z,18.70
2018-08-11T13:24:35.733Z,18.70
2018-08-11T13:27:03.155Z,18.70
2018-08-11T13:29:30.583Z,18.70
2018-08-11T13:31:58.045Z,18.80
2018-08-11T13:34:25.468Z,18.80
2018-08-11T13:36:52.933Z,18.80
2018-08-11T13:39:20.382Z,19.00
2018-08-11T13:41:49.023Z,18.90
2018-08-11T13:44:17.523Z,19.00
2018-08-11T13:46:45.183Z,19.00
2018-08-11T13:49:12.676Z,18.70
2018-08-11T13:51:40.171Z,18.80
2018-08-11T13:54:07.637Z,18.90
2018-08-11T13:56:35.685Z,18.90
2018-08-11T13:59:03.155Z,18.90
2018-08-11T14:01:30.742Z,18.90
2018-08-11T14:03:58.131Z,18.70
2018-08-11T14:06:25.589Z,18.10
2018-08-11T14:08:52.997Z,17.80
2018-08-11T14:11:20.480Z,17.40
2018-08-11T14:13:47.908Z,17.30
2018-08-11T14:16:15.563Z,17.10
2018-08-11T14:18:42.979Z,17.30
2018-08-11T14:21:10.386Z,17.30
2018-08-11T14:23:37.839Z,17.30
2018-08-11T14:26:05.395Z,17.40
2018-08-11T14:28:32.822Z,17.10
2018-08-11T14:31:00.300Z,17.10
2018-08-11T14:33:27.923Z,17.00
2018-08-11T14:35:55.369Z,16.80
2018-08-11T14:38:22.779Z,16.60
2018-08-11T14:40:50.205Z,16.50
2018-08-11T14:43:17.608Z,16.70
2018-08-11T14:45:45.064Z,17.50
2018-08-11T14:48:12.516Z,17.70
2018-08-11T14:50:40.012Z,17.30
2018-08-11T14:53:07.451Z,17.30
2018-08-11T14:55:34.942Z,17.40
2018-08-11T14:58:07.947Z,17.40
2018-08-11T15:00:35.343Z,17.30
2018-08-11T15:03:02.813Z,18.00
2018-08-11T15:05:30.235Z,19.40
2018-08-11T15:07:57.683Z,20.30
2018-08-11T15:10:25.087Z,20.10
2018-08-11T15:12:52.530Z,19.00
2018-08-11T15:15:19.935Z,18.40
2018-08-11T15:17:47.433Z,17.90
2018-08-11T15:20:15.956Z,17.70
2018-08-11T15:22:43.413Z,17.60
2018-08-11T15:25:10.835Z,17.40
2018-08-11T15:27:38.840Z,17.20
2018-08-11T15:30:08.238Z,18.10
2018-08-11T15:32:35.678Z,19.60
2018-08-11T15:35:03.798Z,20.50
2018-08-11T15:37:31.227Z,21.20
2018-08-11T15:39:58.655Z,21.90
2018-08-11T15:42:26.087Z,21.50
2018-08-11T15:44:53.597Z,21.00
2018-08-11T15:47:21.016Z,19.80
2018-08-11T15:49:48.407Z,19.40
2018-08-11T15:52:15.831Z,18.80
2018-08-11T15:54:43.320Z,18.50
2018-08-11T15:57:14.155Z,18.00
2018-08-11T15:59:41.575Z,17.70
2018-08-11T16:02:09.143Z,17.50
2018-08-11T16:04:36.719Z,17.70
2018-08-11T16:07:04.186Z,17.70
2018-08-11T16:09:31.598Z,18.10
2018-08-11T16:11:59.048Z,18.50
2018-08-11T16:14:26.456Z,18.80
2018-08-11T16:16:53.910Z,19.60
2018-08-11T16:19:21.365Z,19.00
2018-08-11T16:21:48.783Z,19.20
2018-08-11T16:24:16.215Z,20.10
2018-08-11T16:26:43.719Z,19.90
2018-08-11T16:29:11.143Z,20.80
2018-08-11T16:31:38.560Z,22.00
2018-08-11T16:34:06.182Z,21.50
2018-08-11T16:36:33.772Z,22.30
2018-08-11T16:39:01.682Z,20.80
2018-08-11T16:41:29.100Z,20.30
2018-08-11T16:43:56.534Z,19.70
2018-08-11T16:46:23.962Z,20.20
2018-08-11T16:48:51.593Z,20.90
2018-08-11T16:51:19.000Z,21.40
2018-08-11T16:53:46.423Z,21.40
2018-08-11T16:56:13.950Z,22.00
2018-08-11T16:58:41.387Z,22.10
2018-08-11T17:01:08.871Z,21.50
2018-08-11T17:03:36.363Z,21.90
2018-08-11T17:06:03.787Z,22.80
2018-08-11T17:08:31.215Z,22.80
2018-08-11T17:10:58.734Z,23.90
2018-08-11T17:13:26.166Z,22.70
2018-08-11T17:15:53.567Z,22.00
2018-08-11T17:18:21.071Z,22.70
2018-08-11T17:20:48.511Z,22.50
2018-08-11T17:23:15.949Z,21.30
2018-08-11T17:25:43.379Z,20.90
2018-08-11T17:28:10.819Z,20.80
2018-08-11T17:30:38.273Z,20.10
2018-08-11T17:33:05.781Z,20.20
2018-08-11T17:35:33.375Z,21.30
2018-08-11T17:38:00.775Z,21.70
2018-08-11T17:40:28.347Z,20.70
2018-08-11T17:42:55.783Z,20.20
2018-08-11T17:45:23.196Z,20.00
2018-08-11T17:47:50.722Z,19.50
2018-08-11T17:50:18.171Z,19.00
2018-08-11T17:52:45.642Z,18.60
2018-08-11T17:55:13.130Z,18.40
2018-08-11T17:57:40.531Z,18.40
2018-08-11T18:00:08.719Z,18.30
2018-08-11T18:02:36.203Z,18.50
2018-08-11T18:05:04.016Z,18.50
2018-08-11T18:07:31.461Z,17.90
2018-08-11T18:09:59.035Z,17.50
2018-08-11T18:12:26.616Z,17.60
2018-08-11T18:14:54.055Z,17.70
2018-08-11T18:17:21.471Z,17.60
2018-08-11T18:19:50.453Z,17.40
2018-08-11T18:22:18.591Z,17.60
2018-08-11T18:24:46.051Z,17.80
2018-08-11T18:27:13.511Z,17.70
2018-08-11T18:29:40.932Z,17.70
2018-08-11T18:32:08.331Z,17.70
2018-08-11T18:34:35.812Z,17.40
2018-08-11T18:37:03.334Z,17.40
2018-08-11T18:39:30.897Z,17.20
2018-08-11T18:41:58.319Z,17.30
2018-08-11T18:44:25.720Z,17.20
2018-08-11T18:46:53.104Z,16.80
2018-08-11T18:49:20.624Z,16.80
2018-08-11T18:51:48.050Z,17.00
2018-08-11T18:54:15.491Z,17.20
2018-08-11T18:56:42.925Z,17.00
2018-08-11T18:59:10.551Z,16.90
2018-08-11T19:01:38.070Z,16.90
2018-08-11T19:04:05.803Z,16.70
2018-08-11T19:06:33.265Z,16.70
2018-08-11T19:09:00.935Z,16.70
2018-08-11T19:11:28.384Z,16.70
2018-08-11T19:13:55.861Z,16.60
2018-08-11T19:16:23.268Z,16.80
2018-08-11T19:18:50.714Z,16.70
2018-08-11T19:21:18.146Z,16.70
2018-08-11T19:23:45.567Z,16.80
2018-08-11T19:26:12.989Z,16.70
2018-08-11T19:28:40.391Z,16.60
2018-08-11T19:31:07.874Z,16.50
2018-08-11T19:33:35.262Z,16.70
2018-08-11T19:36:02.743Z,16.70
2018-08-11T19:38:30.667Z,16.50
2018-08-11T19:40:58.302Z,16.40
2018-08-11T19:43:25.737Z,16.60
2018-08-11T19:45:53.201Z,16.70
2018-08-11T19:48:20.641Z,16.60
2018-08-11T19:50:48.116Z,16.50
2018-08-11T19:53:15.531Z,16.50
2018-08-11T19:55:43.071Z,16.40
2018-08-11T19:58:10.535Z,16.30
2018-08-11T20:00:37.996Z,16.40
2018-08-11T20:03:05.443Z,16.60
2018-08-11T20:05:32.940Z,16.50
2018-08-11T20:08:00.376Z,16.20
2018-08-11T20:10:27.798Z,16.30
2018-08-11T20:12:55.217Z,16.30
2018-08-11T20:15:22.685Z,16.40
2018-08-11T20:17:50.140Z,16.20
2018-08-11T20:20:17.563Z,16.30
2018-08-11T20:22:45.195Z,16.40
2018-08-11T20:25:12.714Z,16.20
2018-08-11T20:27:40.241Z,16.20
2018-08-11T20:30:09.167Z,16.20
2018-08-11T20:32:36.591Z,16.10
2018-08-11T20:35:04.210Z,16.10
2018-08-11T20:37:31.675Z,16.00
2018-08-11T20:39:59.134Z,15.90
2018-08-11T20:42:26.582Z,15.90
2018-08-11T20:45:15.241Z,15.80
2018-08-11T20:47:42.675Z,16.00
2018-08-11T20:50:10.182Z,16.00
2018-08-11T20:52:37.715Z,15.90
2018-08-11T20:55:06.103Z,15.80
2018-08-11T20:57:33.567Z,15.80
2018-08-11T21:00:01.007Z,16.00
2018-08-11T21:02:28.399Z,15.80
2018-08-11T21:04:56.021Z,15.60
2018-08-11T21:07:23.504Z,15.80
2018-08-11T21:09:50.960Z,15.90
2018-08-11T21:12:18.438Z,16.00
2018-08-11T21:14:46.145Z,16.00
2018-08-11T21:17:13.713Z,16.10
2018-08-11T21:19:41.130Z,16.10
2018-08-11T21:22:08.580Z,15.90
2018-08-11T21:24:36.010Z,15.60
2018-08-11T21:27:03.454Z,15.70
2018-08-11T21:29:30.909Z,15.60
2018-08-11T21:31:58.330Z,15.70
2018-08-11T21:34:25.842Z,15.70
2018-08-11T21:36:53.373Z,15.60
2018-08-11T21:39:20.801Z,15.50
2018-08-11T21:41:48.243Z,15.30
2018-08-11T21:44:15.717Z,15.40
2018-08-11T21:46:43.196Z,15.50
2018-08-11T21:49:25.076Z,15.40
2018-08-11T21:51:52.660Z,15.50
2018-08-11T21:54:20.190Z,15.40
2018-08-11T21:56:47.667Z,15.20
2018-08-11T21:59:15.178Z,15.10
2018-08-11T22:01:42.635Z,15.20
2018-08-11T22:04:10.054Z,15.00
2018-08-11T22:06:37.555Z,15.10
2018-08-11T22:09:09.137Z,15.20
2018-08-11T22:11:36.662Z,15.30
2018-08-11T22:14:05.427Z,15.20
2018-08-11T22:16:32.903Z,15.00
2018-08-11T22:19:00.400Z,15.20
2018-08-11T22:21:27.887Z,15.20
2018-08-11T22:23:55.519Z,15.20
2018-08-11T22:26:23.020Z,15.20
2018-08-11T22:28:50.477Z,15.30
2018-08-11T22:31:17.939Z,15.30
2018-08-11T22:33:45.427Z,15.20
2018-08-11T22:36:12.947Z,15.20
2018-08-11T22:38:40.566Z,15.20
2018-08-11T22:41:07.990Z,15.10
2018-08-11T22:43:35.583Z,15.10
2018-08-11T22:46:03.055Z,15.20
2018-08-11T22:48:30.486Z,14.90
2018-08-11T22:50:57.950Z,15.10
2018-08-11T22:53:25.508Z,15.00
2018-08-11T22:55:52.928Z,15.00
2018-08-11T22:58:20.426Z,15.10
2018-08-11T23:00:47.928Z,14.90
2018-08-11T23:03:15.413Z,15.10
2018-08-11T23:05:42.853Z,15.10
2018-08-11T23:08:10.308Z,15.20
2018-08-11T23:10:37.739Z,15.20
2018-08-11T23:13:05.262Z,15.00
2018-08-11T23:15:32.701Z,15.10
2018-08-11T23:18:00.167Z,15.10
2018-08-11T23:20:27.570Z,15.20
2018-08-11T23:22:55.008Z,15.00
2018-08-11T23:25:22.422Z,15.10
2018-08-11T23:27:49.883Z,15.00
2018-08-11T23:30:17.647Z,15.10
2018-08-11T23:32:45.349Z,15.10
2018-08-11T23:35:13.279Z,15.20
2018-08-11T23:37:41.265Z,15.20
2018-08-11T23:40:09.572Z,15.20
2018-08-11T23:42:37.403Z,15.10
2018-08-11T23:45:07.460Z,15.20
2018-08-11T23:47:34.930Z,15.20
2018-08-11T23:50:02.338Z,15.10
2018-08-11T23:52:29.892Z,15.00
2018-08-11T23:54:57.305Z,14.90
2018-08-11T23:57:24.725Z,14.90
2018-08-11T23:59:52.151Z,15.00
